Time;durP1;ratioP1;P1;durP2;ratioP2;P2;SDS_P1;SDS_P2;PMS_P1;PMS_P2;Temp;Humidity;BMP_temperature;BMP_pressure;BME280_temperature;BME280_humidity;BME280_pressure;Samples;Min_cycle;Max_cycle;Signal;HPM_P1;HPM_P2
2022/10/04 00:01:24;;;;;;;13.90;11.82;;;20.30;91.90;;;;;;6337189;22;20332;-83
2022/10/04 00:04:02;;;;;;;13.63;12.23;;;20.30;91.90;;;;;;6338071;22;20080;-81
2022/10/04 00:06:28;;;;;;;14.55;11.85;;;20.20;91.90;;;;;;6338393;22;20002;-80
2022/10/04 00:09:11;;;;;;;13.60;11.73;;;20.30;91.90;;;;;;6309429;22;20005;-80
2022/10/04 00:11:42;;;;;;;14.43;12.55;;;20.30;91.90;;;;;;6335949;22;20002;-82
2022/10/04 00:14:16;;;;;;;13.93;11.90;;;20.30;91.90;;;;;;6339040;22;19999;-81
2022/10/04 00:16:42;;;;;;;12.80;11.57;;;20.20;91.80;;;;;;6338562;22;20444;-82
2022/10/04 00:19:14;;;;;;;13.75;12.15;;;20.20;91.90;;;;;;6338640;22;20123;-82
2022/10/04 00:21:55;;;;;;;13.23;11.82;;;20.20;91.90;;;;;;6336637;22;20392;-82
2022/10/04 00:24:25;;;;;;;14.60;12.68;;;20.20;91.90;;;;;;6337593;22;20005;-82
2022/10/04 00:26:51;;;;;;;;;;;20.20;91.90;;;;;;6338530;22;20392;-81
2022/10/04 00:29:43;;;;;;;12.68;11.35;;;20.10;91.90;;;;;;6338001;22;19936;-82
2022/10/04 00:32:11;;;;;;;16.02;13.20;;;20.20;92.00;;;;;;6332427;22;20002;-83
2022/10/04 00:34:49;;;;;;;15.10;12.55;;;20.10;92.00;;;;;;6337802;22;20079;-83
2022/10/04 00:37:16;;;;;;;15.15;12.88;;;20.10;92.00;;;;;;6338514;22;20078;-79
2022/10/04 00:39:45;;;;;;;13.73;12.27;;;20.10;92.00;;;;;;6336717;22;20007;-82
2022/10/04 00:42:22;;;;;;;13.80;12.10;;;20.20;92.00;;;;;;6338830;22;20003;-82
2022/10/04 00:45:00;;;;;;;13.13;11.68;;;20.10;92.00;;;;;;6337691;22;19999;-83
2022/10/04 00:47:30;;;;;;;13.65;11.77;;;20.10;92.00;;;;;;6337501;22;20006;-82
2022/10/04 00:50:15;;;;;;;13.45;11.52;;;20.10;92.00;;;;;;6339171;22;20101;-85
2022/10/04 00:53:02;;;;;;;13.02;11.70;;;20.10;92.00;;;;;;6339365;22;20018;-86
2022/10/04 00:55:33;;;;;;;13.35;11.95;;;20.10;92.10;;;;;;6339176;22;20077;-84
2022/10/04 00:58:03;;;;;;;15.98;12.73;;;20.00;92.00;;;;;;6337386;22;20010;-85
2022/10/04 01:00:32;;;;;;;18.33;13.85;;;20.10;92.00;;;;;;6338915;22;20056;-85
2022/10/04 01:03:06;;;;;;;17.80;15.90;;;20.10;91.90;;;;;;6338496;22;20089;-85
2022/10/04 01:05:45;;;;;;;19.45;16.48;;;19.90;91.30;;;;;;6338075;22;20095;-80
2022/10/04 01:08:14;;;;;;;14.75;12.50;;;19.80;91.40;;;;;;6336520;22;20381;-81
2022/10/04 01:11:00;;;;;;;18.80;15.38;;;19.60;91.50;;;;;;6337355;22;19998;-82
2022/10/04 01:13:38;;;;;;;15.02;12.90;;;19.50;91.40;;;;;;6336287;22;20765;-81
2022/10/04 01:16:33;;;;;;;13.65;11.65;;;19.40;91.60;;;;;;6338605;22;20006;-84
2022/10/04 01:19:25;;;;;;;12.88;11.02;;;19.40;91.60;;;;;;6311876;22;20386;-84
2022/10/04 01:22:11;;;;;;;12.85;10.73;;;19.40;91.60;;;;;;6321926;22;20010;-84
2022/10/04 01:24:40;;;;;;;15.75;12.77;;;19.40;91.60;;;;;;6339532;22;19998;-85
2022/10/04 01:27:38;;;;;;;13.25;11.10;;;19.40;91.50;;;;;;6338933;22;20428;-83
2022/10/04 01:30:08;;;;;;;11.93;10.77;;;19.40;91.40;;;;;;6270521;22;20002;-81
2022/10/04 01:32:35;;;;;;;14.05;10.35;;;19.40;91.30;;;;;;6337695;22;20009;-81
2022/10/04 01:35:01;;;;;;;12.68;10.55;;;19.40;91.20;;;;;;6334801;22;20033;-83
2022/10/04 01:37:27;;;;;;;12.85;10.65;;;19.40;91.20;;;;;;6338956;22;20409;-85
2022/10/04 01:39:53;;;;;;;13.30;11.18;;;19.40;91.10;;;;;;6311117;22;20098;-83
2022/10/04 01:42:44;;;;;;;15.75;11.18;;;19.40;91.00;;;;;;6337061;22;20007;-83
2022/10/04 01:45:22;;;;;;;11.48;10.27;;;19.30;90.90;;;;;;6337357;22;19999;-83
2022/10/04 01:47:59;;;;;;;12.73;10.07;;;19.30;91.00;;;;;;6309997;22;20002;-86
2022/10/04 01:50:30;;;;;;;12.15;10.38;;;19.30;91.00;;;;;;6338532;22;20018;-83
2022/10/04 01:53:08;;;;;;;9.95;8.85;;;19.20;90.90;;;;;;6336877;22;20007;-82
2022/10/04 01:55:36;;;;;;;11.65;10.45;;;19.30;90.90;;;;;;6335482;22;20094;-82
2022/10/04 01:58:19;;;;;;;15.07;11.30;;;19.20;90.80;;;;;;6335827;22;20048;-83
2022/10/04 02:00:52;;;;;;;12.45;10.48;;;19.10;91.00;;;;;;6337426;22;20003;-83
2022/10/04 02:03:52;;;;;;;12.15;9.93;;;19.10;90.90;;;;;;6336445;22;20042;-84
2022/10/04 02:06:18;;;;;;;;;;;19.00;91.00;;;;;;6325681;22;20013;-85
2022/10/04 02:08:50;;;;;;;11.15;9.38;;;19.00;91.00;;;;;;6338315;22;19898;-83
2022/10/04 02:11:20;;;;;;;11.93;9.55;;;19.00;90.90;;;;;;6337334;22;20064;-84
2022/10/04 02:13:50;;;;;;;11.07;9.27;;;19.00;90.90;;;;;;6335618;22;19999;-84
2022/10/04 02:16:16;;;;;;;11.48;9.75;;;19.00;91.10;;;;;;6336429;22;19995;-84
2022/10/04 02:18:44;;;;;;;10.00;8.88;;;19.00;90.90;;;;;;6337507;22;19999;-82
2022/10/04 02:21:11;;;;;;;11.27;8.93;;;19.00;90.90;;;;;;6337877;22;20005;-82
2022/10/04 02:23:38;;;;;;;10.57;8.85;;;19.00;90.90;;;;;;6335987;22;19999;-82
2022/10/04 02:26:08;;;;;;;13.48;9.05;;;19.00;90.90;;;;;;6310191;22;20282;-82
2022/10/04 02:28:35;;;;;;;10.40;9.40;;;19.00;90.80;;;;;;6336156;22;20071;-80
2022/10/04 02:33:48;;;;;;;9.07;8.13;;;19.00;90.80;;;;;;6335715;22;20018;-80
2022/10/04 02:36:16;;;;;;;11.07;7.95;;;19.00;90.70;;;;;;6335364;22;20006;-82
2022/10/04 02:38:53;;;;;;;8.48;7.57;;;19.00;90.70;;;;;;6337149;22;20051;-80
2022/10/04 02:41:56;;;;;;;8.52;7.38;;;18.90;90.60;;;;;;6336426;22;19999;-80
2022/10/04 02:44:40;;;;;;;7.47;6.32;;;18.90;90.50;;;;;;6335565;22;20003;-78
2022/10/04 02:47:12;;;;;;;7.50;6.70;;;18.90;90.50;;;;;;6308835;22;20063;-78
2022/10/04 02:49:47;;;;;;;7.05;5.55;;;19.00;90.50;;;;;;6336834;22;20003;-79
2022/10/04 02:52:15;;;;;;;8.38;6.78;;;18.90;90.40;;;;;;6336615;22;19999;-78
2022/10/04 02:54:48;;;;;;;12.40;8.32;;;18.90;90.40;;;;;;6308599;22;20056;-79
2022/10/04 02:57:23;;;;;;;12.15;8.52;;;18.90;90.40;;;;;;6336707;22;20471;-79
2022/10/04 02:59:50;;;;;;;11.82;8.02;;;18.90;90.50;;;;;;6336546;22;20012;-79
2022/10/04 03:02:24;;;;;;;11.38;8.15;;;18.90;90.60;;;;;;6335815;22;20413;-80
2022/10/04 03:04:55;;;;;;;10.65;7.60;;;18.80;90.60;;;;;;6336541;22;20003;-81
2022/10/04 03:07:22;;;;;;;10.70;7.22;;;18.80;90.60;;;;;;6335907;22;20634;-80
2022/10/04 03:09:49;;;;;;;8.40;6.43;;;18.70;90.60;;;;;;6337594;22;19998;-80
2022/10/04 03:12:15;;;;;;;8.98;5.20;;;18.70;90.60;;;;;;6336043;22;20007;-79
2022/10/04 03:14:41;;;;;;;6.05;5.20;;;18.70;90.60;;;;;;6336037;22;19998;-80
2022/10/04 03:17:08;;;;;;;5.07;4.40;;;18.70;90.50;;;;;;6336086;22;20510;-80
2022/10/04 03:19:34;;;;;;;6.07;4.28;;;18.70;90.30;;;;;;6335661;22;20417;-80
2022/10/04 03:22:10;;;;;;;6.47;4.38;;;18.70;90.00;;;;;;6336378;22;20002;-80
2022/10/04 03:24:45;;;;;;;4.68;4.13;;;18.70;90.10;;;;;;6336050;22;19999;-79
2022/10/04 03:27:33;;;;;;;5.45;4.15;;;18.70;90.10;;;;;;6336334;22;20538;-79
2022/10/04 03:30:00;;;;;;;4.53;3.92;;;18.70;90.00;;;;;;6338045;22;20005;-79
2022/10/04 03:32:29;;;;;;;5.60;4.65;;;18.70;89.90;;;;;;6338200;22;20002;-78
2022/10/04 03:35:01;;;;;;;6.50;4.28;;;18.70;89.80;;;;;;6339149;22;20013;-79
2022/10/04 03:37:31;;;;;;;5.50;3.85;;;18.70;89.70;;;;;;6338916;22;20007;-79
2022/10/04 03:39:57;;;;;;;4.55;4.07;;;18.70;89.60;;;;;;6338906;22;20002;-84
2022/10/04 03:42:26;;;;;;;4.15;3.72;;;18.70;89.50;;;;;;6339403;22;20368;-84
2022/10/04 03:44:58;;;;;;;4.90;3.28;;;18.60;89.40;;;;;;6312684;22;20090;-83
2022/10/04 03:47:32;;;;;;;4.05;3.00;;;18.70;89.40;;;;;;6339548;22;20083;-83
2022/10/04 03:50:05;;;;;;;4.10;3.15;;;18.70;89.20;;;;;;6339263;22;19995;-83
2022/10/04 03:52:34;;;;;;;4.78;3.25;;;18.60;89.00;;;;;;6339261;22;20010;-82
2022/10/04 03:55:02;;;;;;;4.05;3.30;;;18.60;88.80;;;;;;6339358;22;20044;-83
2022/10/04 03:57:30;;;;;;;4.25;3.03;;;18.60;88.80;;;;;;6339987;22;20025;-84
2022/10/04 03:59:57;;;;;;;2.80;2.55;;;18.60;88.60;;;;;;6339985;22;20421;-84
2022/10/04 04:02:42;;;;;;;4.05;2.80;;;18.50;88.40;;;;;;6339352;22;20010;-84
2022/10/04 04:05:23;;;;;;;5.20;3.28;;;18.50;88.50;;;;;;6311983;22;20002;-84
2022/10/04 04:08:11;;;;;;;4.13;2.75;;;18.50;88.40;;;;;;6339407;22;20026;-84
2022/10/04 04:10:41;;;;;;;4.22;2.97;;;18.50;88.80;;;;;;6312003;22;20027;-84
2022/10/04 04:13:15;;;;;;;3.08;2.35;;;18.50;88.30;;;;;;6285992;22;20013;-85
2022/10/04 04:15:44;;;;;;;3.38;2.55;;;18.40;88.20;;;;;;6339072;22;20003;-84
2022/10/04 04:18:16;;;;;;;4.85;2.72;;;18.40;88.20;;;;;;6339073;22;19999;-84
2022/10/04 04:20:43;;;;;;;3.83;2.70;;;18.40;88.10;;;;;;6338071;22;20096;-83
2022/10/04 04:23:14;;;;;;;3.53;2.55;;;18.40;88.00;;;;;;6338427;22;20321;-85
2022/10/04 04:25:42;;;;;;;4.72;2.45;;;18.40;87.90;;;;;;6311360;22;20435;-84
2022/10/04 04:28:41;;;;;;;3.45;2.40;;;18.40;87.80;;;;;;6338909;22;19995;-83
2022/10/04 04:31:23;;;;;;;4.30;2.72;;;18.50;87.70;;;;;;6338168;22;20047;-84
2022/10/04 04:34:00;;;;;;;2.45;1.80;;;18.50;87.50;;;;;;6339199;22;20009;-85
2022/10/04 04:36:28;;;;;;;2.90;2.28;;;18.40;87.40;;;;;;6313601;22;20003;-85
2022/10/04 04:41:49;;;;;;;3.53;2.33;;;18.40;87.30;;;;;;6342334;22;20018;-84
2022/10/04 04:44:19;;;;;;;2.38;1.85;;;18.40;87.00;;;;;;6342260;22;19998;-87
2022/10/04 04:46:46;;;;;;;3.85;2.22;;;18.40;86.80;;;;;;6343507;22;20049;-87
2022/10/04 04:49:14;;;;;;;3.40;2.20;;;18.40;86.50;;;;;;6340920;22;20006;-86
2022/10/04 04:51:45;;;;;;;2.65;1.90;;;18.40;86.50;;;;;;6339992;22;19999;-86
2022/10/04 04:54:11;;;;;;;4.70;2.40;;;18.30;86.40;;;;;;6312070;22;20384;-84
2022/10/04 04:56:37;;;;;;;2.47;2.00;;;18.30;86.30;;;;;;6338981;22;20007;-81
2022/10/04 04:59:06;;;;;;;3.10;1.88;;;18.30;86.30;;;;;;6310516;22;20006;-81
2022/10/04 05:01:43;;;;;;;2.55;2.08;;;18.30;86.30;;;;;;6337212;22;20006;-81
2022/10/04 05:04:08;;;;;;;4.82;2.33;;;18.30;86.20;;;;;;6337667;22;20014;-81
2022/10/04 05:06:36;;;;;;;2.35;1.85;;;18.30;85.80;;;;;;6338028;22;20098;-79
2022/10/04 05:09:04;;;;;;;3.25;1.90;;;18.20;86.00;;;;;;6338617;22;20002;-79
2022/10/04 05:11:37;;;;;;;3.28;1.75;;;18.30;86.00;;;;;;6338246;22;20003;-80
2022/10/04 05:14:09;;;;;;;2.88;1.90;;;18.30;85.90;;;;;;6336147;22;20553;-80
2022/10/04 05:16:35;;;;;;;3.95;2.40;;;18.30;85.90;;;;;;6337278;22;20010;-80
2022/10/04 05:19:04;;;;;;;5.05;2.00;;;18.30;85.60;;;;;;6338497;22;20188;-80
2022/10/04 05:21:33;;;;;;;2.67;1.53;;;18.30;85.40;;;;;;6337123;22;20002;-80
2022/10/04 05:24:16;;;;;;;2.33;2.00;;;18.40;85.20;;;;;;6337808;22;19995;-80
2022/10/04 05:26:42;;;;;;;2.17;1.80;;;18.40;85.10;;;;;;6337821;22;20006;-79
2022/10/04 05:29:16;;;;;;;4.43;2.00;;;18.40;84.90;;;;;;6338398;22;19999;-82
2022/10/04 05:32:19;;;;;;;4.63;2.08;;;18.40;84.70;;;;;;6338182;22;20027;-83
2022/10/04 05:34:49;;;;;;;3.67;1.48;;;18.30;84.70;;;;;;6282093;22;20450;-82
2022/10/04 05:37:51;;;;;;;3.03;1.98;;;18.30;84.70;;;;;;6338911;22;20026;-82
2022/10/04 05:40:19;;;;;;;3.75;1.85;;;18.30;84.60;;;;;;6338660;22;20139;-83
2022/10/04 05:42:45;;;;;;;6.88;2.00;;;18.30;84.60;;;;;;6338428;22;20321;-82
2022/10/04 05:45:41;;;;;;;3.92;2.00;;;18.20;84.50;;;;;;6338363;22;20068;-83
2022/10/04 05:48:07;;;;;;;3.33;1.73;;;18.20;84.20;;;;;;6324381;22;20007;-84
2022/10/04 05:50:42;;;;;;;2.38;1.73;;;18.20;84.40;;;;;;6337559;22;20003;-81
2022/10/04 05:53:45;;;;;;;5.47;1.70;;;18.30;84.50;;;;;;6310281;22;20002;-82
2022/10/04 05:56:29;;;;;;;3.78;2.15;;;18.30;84.40;;;;;;6334823;22;20056;-80
2022/10/04 05:58:57;;;;;;;4.40;1.73;;;18.30;83.60;;;;;;6337860;22;20081;-82
2022/10/04 06:01:35;;;;;;;3.30;2.00;;;18.20;84.10;;;;;;6337204;22;20433;-82
2022/10/04 06:04:25;;;;;;;3.17;1.88;;;18.20;84.40;;;;;;6337607;22;20341;-82
2022/10/04 06:07:04;;;;;;;4.90;2.03;;;18.30;84.40;;;;;;6338033;22;20341;-84
2022/10/04 06:10:11;;;;;;;2.63;1.80;;;18.30;84.20;;;;;;6338099;22;20056;-83
2022/10/04 06:12:57;;;;;;;3.58;1.70;;;18.30;83.90;;;;;;6286817;22;20313;-86
2022/10/04 06:15:44;;;;;;;3.28;1.50;;;18.30;83.70;;;;;;6337521;22;20007;-86
2022/10/04 06:18:16;;;;;;;3.95;1.80;;;18.30;83.60;;;;;;6343131;22;20005;-87
2022/10/04 06:21:20;;;;;;;3.42;1.73;;;18.20;83.50;;;;;;6337906;22;20432;-85
2022/10/04 06:24:09;;;;;;;2.70;1.58;;;18.20;83.60;;;;;;6337751;22;20440;-84
2022/10/04 06:26:39;;;;;;;3.10;2.03;;;18.20;83.30;;;;;;6332844;22;20006;-85
2022/10/04 06:29:15;;;;;;;2.58;1.63;;;18.20;83.90;;;;;;6307774;22;19999;-81
2022/10/04 06:31:46;;;;;;;2.58;1.63;;;18.20;83.70;;;;;;6335415;22;19998;-81
2022/10/04 06:34:47;;;;;;;4.78;1.58;;;18.20;83.70;;;;;;6332771;22;19998;-83
2022/10/04 06:37:15;;;;;;;;;;;18.10;83.60;;;;;;6338515;22;19998;-83
2022/10/04 06:40:19;;;;;;;2.97;1.80;;;18.10;83.30;;;;;;6337517;22;19899;-82
2022/10/04 06:42:48;;;;;;;3.38;2.15;;;18.20;84.00;;;;;;6337191;22;20332;-83
2022/10/04 06:45:28;;;;;;;3.00;1.77;;;18.20;83.40;;;;;;6337400;22;20002;-82
2022/10/04 06:48:30;;;;;;;2.85;1.58;;;18.20;84.00;;;;;;6338406;22;19995;-83
2022/10/04 06:51:14;;;;;;;2.65;1.50;;;18.20;84.10;;;;;;6336866;22;20369;-83
2022/10/04 06:53:49;;;;;;;2.58;1.45;;;18.30;83.50;;;;;;6337348;22;20036;-84
2022/10/04 06:56:31;;;;;;;3.63;1.90;;;18.40;84.10;;;;;;6337951;22;20421;-83
2022/10/04 06:59:30;;;;;;;2.25;1.23;;;18.40;83.90;;;;;;6336676;22;20067;-83
2022/10/04 07:02:01;;;;;;;3.00;1.60;;;18.50;83.80;;;;;;6337853;22;20479;-82
2022/10/04 07:04:36;;;;;;;2.88;1.80;;;18.50;83.30;;;;;;6343039;22;20015;-83
2022/10/04 07:07:35;;;;;;;4.60;1.27;;;18.60;83.50;;;;;;6340923;22;19995;-83
2022/10/04 07:10:42;;;;;;;3.53;1.40;;;18.60;83.30;;;;;;6336663;22;20383;-82
2022/10/04 07:14:03;;;;;;;2.67;1.58;;;18.70;83.10;;;;;;6336924;22;20237;-83
2022/10/04 07:16:38;;;;;;;1.77;1.35;;;18.80;83.10;;;;;;6331249;22;20086;-82
2022/10/04 07:19:19;;;;;;;4.43;1.80;;;18.80;82.70;;;;;;6311598;22;20340;-83
2022/10/04 07:21:56;;;;;;;2.83;1.70;;;18.90;82.60;;;;;;6339770;22;19999;-82
2022/10/04 07:24:52;;;;;;;3.30;1.00;;;18.90;82.60;;;;;;6340647;22;20006;-84
2022/10/04 07:27:46;;;;;;;2.33;1.30;;;19.00;82.50;;;;;;6333407;22;20003;-82
2022/10/04 07:30:17;;;;;;;1.90;1.48;;;19.10;82.20;;;;;;6341059;22;20521;-83
2022/10/04 07:32:53;;;;;;;6.88;1.63;;;19.10;82.10;;;;;;6340467;22;20026;-82
2022/10/04 07:35:35;;;;;;;4.55;1.50;;;19.20;81.90;;;;;;6314009;22;20018;-82
2022/10/04 07:38:27;;;;;;;1.88;0.98;;;19.20;82.10;;;;;;6310727;22;20007;-84
2022/10/04 07:41:06;;;;;;;2.35;1.25;;;19.40;82.10;;;;;;6312065;22;20002;-85
2022/10/04 07:43:44;;;;;;;3.38;1.40;;;19.50;82.30;;;;;;6310455;22;20072;-85
2022/10/04 07:46:37;;;;;;;5.35;1.30;;;17.20;80.80;;;;;;6312506;22;19999;-85
2022/10/04 07:49:04;;;;;;;2.75;1.30;;;19.60;82.50;;;;;;6311494;22;20371;-83
2022/10/04 07:51:39;;;;;;;1.77;1.10;;;19.70;82.60;;;;;;6311609;22;20343;-81
2022/10/04 07:54:21;;;;;;;2.17;0.90;;;19.80;82.20;;;;;;6309995;22;20082;-84
2022/10/04 07:56:59;;;;;;;3.75;1.40;;;19.90;81.30;;;;;;6311043;22;20006;-85
2022/10/04 07:59:58;;;;;;;4.03;1.27;;;20.00;81.30;;;;;;6309976;22;20340;-82
2022/10/04 08:02:43;;;;;;;15.15;2.33;;;20.00;80.90;;;;;;6326549;22;20082;-83
2022/10/04 08:05:10;;;;;;;6.65;1.50;;;20.10;80.70;;;;;;6310307;22;20003;-83
2022/10/04 08:07:58;;;;;;;2.45;1.52;;;20.30;80.70;;;;;;6311775;22;20006;-84
2022/10/04 08:10:36;;;;;;;1.95;1.38;;;20.10;80.70;;;;;;6312247;22;20014;-85
2022/10/04 08:13:31;;;;;;;4.03;1.23;;;20.20;80.90;;;;;;6339599;22;20002;-84
2022/10/04 08:16:17;;;;;;;2.90;1.67;;;20.30;80.90;;;;;;6311786;22;20484;-84
2022/10/04 08:19:09;;;;;;;2.38;1.55;;;20.50;81.00;;;;;;6339410;22;20002;-84
2022/10/04 08:22:15;;;;;;;3.28;1.42;;;20.50;80.80;;;;;;6311825;22;20011;-85
2022/10/04 08:24:58;;;;;;;2.28;1.48;;;20.80;80.60;;;;;;6329639;22;20007;-83
2022/10/04 08:31:01;;;;;;;4.38;1.80;;;20.90;80.40;;;;;;6339382;22;20502;-83
2022/10/04 08:33:53;;;;;;;1.77;1.65;;;20.90;80.10;;;;;;6310835;22;20007;-83
2022/10/04 08:36:30;;;;;;;4.55;1.60;;;20.90;80.00;;;;;;6339129;22;20007;-83
2022/10/04 08:39:20;;;;;;;7.63;2.03;;;21.00;80.00;;;;;;6339413;22;20003;-82
2022/10/04 08:42:21;;;;;;;5.28;1.80;;;21.00;79.40;;;;;;6311227;22;20484;-84
2022/10/04 08:45:42;;;;;;;2.05;1.25;;;20.90;78.80;;;;;;6338935;22;20002;-85
2022/10/04 08:48:45;;;;;;;2.22;1.60;;;20.90;79.10;;;;;;6289471;22;20030;-84
2022/10/04 08:51:50;;;;;;;2.97;1.50;;;20.80;79.00;;;;;;6339016;22;20003;-85
2022/10/04 08:54:39;;;;;;;3.13;1.30;;;20.80;79.60;;;;;;6319504;22;20040;-86
2022/10/04 08:57:18;;;;;;;2.58;1.35;;;20.80;80.10;;;;;;6338712;22;20418;-81
2022/10/04 09:00:20;;;;;;;3.92;1.85;;;20.90;80.40;;;;;;6311618;22;20421;-81
2022/10/04 09:02:51;;;;;;;4.28;1.60;;;20.90;79.50;;;;;;6338612;22;20086;-83
2022/10/04 09:05:45;;;;;;;4.90;2.22;;;20.90;79.90;;;;;;6310798;22;20014;-83
2022/10/04 09:08:32;;;;;;;3.88;1.65;;;21.00;79.80;;;;;;6311259;22;20006;-81
2022/10/04 09:11:08;;;;;;;2.80;1.40;;;21.10;80.20;;;;;;6337674;22;21155;-82
2022/10/04 09:14:06;;;;;;;3.45;1.90;;;21.20;80.40;;;;;;6310001;22;20064;-82
2022/10/04 09:17:20;;;;;;;2.33;1.65;;;21.50;80.60;;;;;;6310743;22;20033;-81
2022/10/04 09:20:19;;;;;;;2.17;1.77;;;21.60;79.30;;;;;;6313673;22;20007;-81
2022/10/04 09:23:07;;;;;;;2.45;1.42;;;21.70;79.70;;;;;;6338480;22;20014;-80
2022/10/04 09:26:07;;;;;;;3.38;2.22;;;21.90;79.20;;;;;;6336739;22;20077;-82
2022/10/04 09:29:07;;;;;;;3.63;2.00;;;21.80;77.90;;;;;;6338188;22;20405;-82
2022/10/04 09:32:24;;;;;;;5.18;2.47;;;21.90;78.50;;;;;;6311177;22;20052;-83
2022/10/04 09:35:26;;;;;;;4.28;2.20;;;21.80;77.70;;;;;;6273499;22;20008;-85
2022/10/04 09:38:22;;;;;;;2.28;1.40;;;21.80;78.40;;;;;;6273540;22;19999;-87
2022/10/04 09:41:07;;;;;;;1.85;1.58;;;22.00;79.30;;;;;;6311190;22;20006;-85
2022/10/04 09:44:00;;;;;;;3.83;2.33;;;22.20;79.40;;;;;;6309577;22;20010;-87
2022/10/04 09:46:44;;;;;;;1.90;1.45;;;22.20;77.60;;;;;;6337704;22;20005;-85
2022/10/04 09:49:36;;;;;;;2.25;1.40;;;22.10;78.30;;;;;;6335182;22;20002;-86
2022/10/04 09:52:34;;;;;;;2.20;1.38;;;22.10;78.70;;;;;;6330530;22;20007;-85
2022/10/04 09:55:33;;;;;;;3.17;1.88;;;22.20;79.70;;;;;;6303396;22;20006;-85
2022/10/04 09:58:08;;;;;;;3.17;1.55;;;22.20;79.50;;;;;;6338628;22;19999;-85
2022/10/04 10:01:00;;;;;;;4.00;1.98;;;22.20;79.60;;;;;;6338237;22;20003;-84
2022/10/04 10:03:53;;;;;;;2.65;1.38;;;22.30;80.40;;;;;;6337424;22;20010;-85
2022/10/04 10:06:40;;;;;;;3.10;1.58;;;22.40;80.20;;;;;;6336726;22;20033;-84
2022/10/04 10:09:09;;;;;;;7.32;2.30;;;22.50;79.70;;;;;;6337719;22;20001;-87
2022/10/04 10:15:08;;;;;;;;;;;22.50;79.50;;;;;;6337392;22;20655;-86
2022/10/04 10:17:52;;;;;;;5.88;2.15;;;22.60;78.30;;;;;;6286747;22;19914;-88
2022/10/04 10:20:54;;;;;;;3.65;1.52;;;22.60;78.00;;;;;;6337476;22;19999;-86
2022/10/04 10:23:47;;;;;;;4.95;2.35;;;22.50;78.80;;;;;;6334615;22;20002;-84
2022/10/04 10:26:24;;;;;;;4.10;2.15;;;22.60;79.20;;;;;;6304386;22;20011;-84
2022/10/04 10:29:24;;;;;;;1.73;1.40;;;22.60;78.20;;;;;;6338530;22;20078;-84
2022/10/04 10:32:01;;;;;;;1.77;1.40;;;22.60;79.00;;;;;;6337751;22;20352;-84
2022/10/04 10:35:08;;;;;;;6.25;1.90;;;22.70;79.10;;;;;;6337506;22;19995;-85
2022/10/04 10:37:45;;;;;;;6.13;1.63;;;22.90;78.80;;;;;;6337929;22;19995;-84
2022/10/04 10:40:33;;;;;;;2.47;1.50;;;23.10;79.00;;;;;;6309615;22;20494;-87
2022/10/04 10:43:22;;;;;;;2.80;1.40;;;23.20;79.10;;;;;;6336682;22;20078;-85
2022/10/04 10:46:00;;;;;;;2.38;1.42;;;23.40;79.00;;;;;;6338598;22;20052;-86
2022/10/04 10:48:25;;;;;;;5.38;1.27;;;23.50;78.40;;;;;;6339530;22;20321;-86
2022/10/04 10:51:09;;;;;;;3.00;1.63;;;23.50;77.70;;;;;;6338982;22;19994;-84
2022/10/04 10:54:12;;;;;;;2.00;1.27;;;23.60;77.70;;;;;;6310934;22;20436;-84
2022/10/04 10:57:04;;;;;;;3.70;1.42;;;23.70;77.20;;;;;;6337272;22;20074;-83
2022/10/04 10:59:59;;;;;;;3.30;1.75;;;23.80;77.40;;;;;;6310122;22;20007;-84
2022/10/04 11:03:04;;;;;;;5.32;1.63;;;23.80;76.80;;;;;;6337884;22;20003;-84
2022/10/04 11:05:45;;;;;;;2.25;1.27;;;23.80;76.50;;;;;;6337610;22;20007;-84
2022/10/04 11:08:42;;;;;;;1.40;1.10;;;23.80;76.80;;;;;;6337456;22;20003;-83
2022/10/04 11:11:46;;;;;;;2.22;1.20;;;23.90;77.00;;;;;;6281467;22;20084;-84
2022/10/04 11:14:17;;;;;;;2.25;1.00;;;24.00;76.80;;;;;;6336655;22;19999;-84
2022/10/04 11:17:09;;;;;;;17.55;12.32;;;24.10;76.70;;;;;;6336514;22;20078;-84
2022/10/04 11:19:37;;;;;;;5.55;2.70;;;24.10;76.50;;;;;;6338118;22;20024;-84
2022/10/04 11:22:43;;;;;;;5.43;3.95;;;24.20;76.60;;;;;;6337094;22;20006;-85
2022/10/04 11:25:43;;;;;;;6.28;3.80;;;24.30;76.40;;;;;;6332924;22;20005;-83
2022/10/04 11:28:35;;;;;;;2.33;1.50;;;24.40;76.50;;;;;;6336064;22;20002;-82
2022/10/04 11:31:25;;;;;;;2.60;1.30;;;24.50;76.50;;;;;;6309114;22;20003;-82
2022/10/04 11:34:23;;;;;;;2.60;1.52;;;24.70;76.10;;;;;;6336125;22;20003;-86
2022/10/04 11:36:49;;;;;;;2.17;1.10;;;24.80;74.20;;;;;;6308540;22;20019;-82
2022/10/04 11:39:37;;;;;;;1.98;1.02;;;24.80;75.10;;;;;;6335476;22;20372;-83
2022/10/04 11:42:25;;;;;;;2.90;1.40;;;25.00;75.10;;;;;;6334501;22;20011;-81
2022/10/04 11:44:58;;;;;;;7.85;1.40;;;25.10;73.60;;;;;;6335015;22;19999;-82
2022/10/04 11:47:33;;;;;;;4.85;1.70;;;25.20;73.00;;;;;;6307088;22;20011;-82
2022/10/04 11:49:59;;;;;;;2.03;1.10;;;25.00;72.40;;;;;;6336534;22;20002;-82
2022/10/04 11:52:49;;;;;;;3.60;1.63;;;25.00;73.70;;;;;;6309035;22;20007;-82
2022/10/04 11:55:26;;;;;;;2.08;1.10;;;25.00;72.00;;;;;;6336641;22;20274;-82
2022/10/04 11:58:08;;;;;;;3.33;1.42;;;24.80;73.20;;;;;;6336672;22;20007;-83
2022/10/04 12:01:18;;;;;;;2.95;1.20;;;24.90;74.00;;;;;;6336373;22;20007;-83
2022/10/04 12:04:02;;;;;;;;;;;25.10;74.10;;;;;;6308809;22;20018;-83
2022/10/04 12:07:07;;;;;;;1.55;0.82;;;25.20;73.70;;;;;;6337419;22;19898;-82
2022/10/04 12:09:38;;;;;;;2.95;1.15;;;25.30;74.00;;;;;;6337821;22;20033;-83
2022/10/04 12:12:37;;;;;;;5.70;1.45;;;25.40;73.80;;;;;;6337202;22;20392;-82
2022/10/04 12:15:40;;;;;;;1.40;0.90;;;25.50;73.80;;;;;;6335991;22;20442;-84
2022/10/04 12:18:25;;;;;;;2.42;0.63;;;25.60;73.50;;;;;;6329166;22;20014;-84
2022/10/04 12:21:14;;;;;;;5.65;1.00;;;25.60;73.50;;;;;;6337664;22;20014;-84
2022/10/04 12:24:08;;;;;;;1.23;1.08;;;25.60;73.40;;;;;;6337679;22;20052;-85
2022/10/04 12:26:42;;;;;;;1.23;0.75;;;25.60;73.40;;;;;;6337562;22;20009;-88
2022/10/04 12:29:52;;;;;;;2.35;0.93;;;25.60;73.40;;;;;;6336810;22;20413;-83
2022/10/04 12:32:48;;;;;;;1.70;1.00;;;25.50;73.40;;;;;;6321098;22;20003;-83
2022/10/04 12:35:36;;;;;;;1.17;0.90;;;25.50;73.30;;;;;;6336987;22;20013;-84
2022/10/04 12:38:16;;;;;;;3.33;1.27;;;25.40;73.30;;;;;;6335869;22;20002;-84
2022/10/04 12:41:05;;;;;;;2.08;1.00;;;25.30;73.30;;;;;;6338279;22;20006;-84
2022/10/04 12:43:55;;;;;;;4.78;1.10;;;25.20;73.60;;;;;;6336448;22;20601;-84
2022/10/04 12:46:32;;;;;;;3.13;1.15;;;25.20;73.90;;;;;;6337875;22;20007;-85
2022/10/04 12:49:20;;;;;;;5.32;0.90;;;25.10;74.00;;;;;;6338619;22;20029;-84
2022/10/04 12:52:12;;;;;;;5.10;1.33;;;25.10;73.90;;;;;;6339128;22;20424;-85
2022/10/04 12:54:49;;;;;;;2.03;0.80;;;25.10;74.20;;;;;;6336091;22;20009;-87
2022/10/04 12:57:33;;;;;;;5.07;4.03;;;25.00;74.00;;;;;;6338838;22;20070;-84
2022/10/04 13:00:15;;;;;;;71.88;58.03;;;25.00;74.10;;;;;;6338224;22;20014;-84
2022/10/04 13:02:44;;;;;;;12.40;10.13;;;25.00;74.40;;;;;;6338181;22;20034;-84
2022/10/04 13:05:19;;;;;;;4.97;2.53;;;25.00;74.50;;;;;;6337292;22;19994;-84
2022/10/04 13:08:36;;;;;;;1.85;1.17;;;24.90;74.50;;;;;;6337869;22;19998;-84
2022/10/04 13:11:19;;;;;;;5.40;1.45;;;24.90;74.00;;;;;;6310232;22;20021;-84
2022/10/04 13:13:57;;;;;;;2.75;1.05;;;24.80;74.50;;;;;;6337476;22;20421;-85
2022/10/04 13:16:23;;;;;;;1.30;0.90;;;24.80;74.60;;;;;;6338149;22;20056;-85
2022/10/04 13:18:57;;;;;;;1.83;1.10;;;24.70;74.60;;;;;;6337032;22;20044;-85
2022/10/04 13:21:46;;;;;;;4.95;1.70;;;24.60;74.90;;;;;;6337956;22;20352;-85
2022/10/04 13:24:30;;;;;;;3.10;1.30;;;24.60;75.00;;;;;;6337170;22;20317;-85
2022/10/04 13:27:06;;;;;;;3.70;1.30;;;24.50;74.90;;;;;;6338204;22;19995;-85
2022/10/04 13:29:46;;;;;;;4.80;1.02;;;24.50;75.10;;;;;;6337168;22;20002;-85
2022/10/04 13:32:26;;;;;;;2.70;0.90;;;24.50;75.40;;;;;;6337861;22;20007;-85
2022/10/04 13:35:11;;;;;;;2.40;0.88;;;24.50;75.80;;;;;;6336450;22;20007;-84
2022/10/04 13:37:39;;;;;;;4.32;1.30;;;24.40;75.90;;;;;;6337087;22;20002;-84
2022/10/04 13:40:34;;;;;;;4.25;1.20;;;24.40;76.00;;;;;;6337596;22;19999;-84
2022/10/04 13:43:14;;;;;;;1.77;0.98;;;24.40;75.70;;;;;;6337242;22;20007;-84
2022/10/04 13:46:03;;;;;;;12.70;1.90;;;24.40;75.50;;;;;;6337406;22;20048;-84
2022/10/04 13:48:51;;;;;;;4.05;1.63;;;24.40;75.60;;;;;;6336458;22;19999;-84
2022/10/04 13:56:35;;;;;;;5.75;2.33;;;24.30;76.10;;;;;;6309704;22;20045;-86
2022/10/04 13:58:11;;;;;;;4.63;1.52;;;24.30;76.90;;;;;;6313283;22;20018;-85
2022/10/04 14:01:04;;;;;;;2.90;1.75;;;24.30;76.80;;;;;;6337539;22;20078;-85
2022/10/04 14:03:39;;;;;;;4.07;1.80;;;24.20;76.90;;;;;;6336454;22;20011;-86
2022/10/04 14:06:41;;;;;;;3.22;2.13;;;24.20;77.20;;;;;;6337220;22;20002;-86
2022/10/04 14:09:44;;;;;;;4.50;1.77;;;24.20;77.60;;;;;;6336667;22;20350;-86
2022/10/04 14:12:14;;;;;;;3.15;0.90;;;24.20;78.00;;;;;;6337036;22;20034;-84
2022/10/04 14:15:23;;;;;;;2.95;1.30;;;24.10;77.90;;;;;;6336525;22;20074;-85